Terminal Aerodrome Forecast
Issued by NWS

Home | Current Version | Previous Version | Text Only | Print | Product List | Glossary On
Versions: 1 2 3 4 5 6 7 8 9 10 11 12 13 14 15 16 17 18 19 20 21
000
FTUS46 KSEW 291100
TAFPAE
TAF
KPAE 291125Z 2912/3012 01004KT 6SM BCFG BKN080 OVC140
      TEMPO 2912/2915 1/2SM BCFG BKN001 OVC080
     FM291500 05003KT P6SM BKN080 OVC140
     FM291900 36005KT P6SM SCT250=

USA.gov is the U.S. government's official web portal to all federal, state and local government web resources and services.